sensor_id;sensor_type;location;lat;lon;timestamp;P1;durP1;ratioP1;P2;durP2;ratioP2
2213;SDS011;1113;42.018;23.986;2023-04-01T00:01:35;31.55;;;20.52;;
2213;SDS011;1113;42.018;23.986;2023-04-01T00:04:01;27.15;;;18.23;;
2213;SDS011;1113;42.018;23.986;2023-04-01T00:06:28;27.85;;;18.60;;
2213;SDS011;1113;42.018;23.986;2023-04-01T00:08:54;23.95;;;17.08;;
2213;SDS011;1113;42.018;23.986;2023-04-01T00:11:21;23.58;;;18.00;;
2213;SDS011;1113;42.018;23.986;2023-04-01T00:13:47;21.05;;;14.48;;
2213;SDS011;1113;42.018;23.986;2023-04-01T00:16:15;22.55;;;15.27;;
2213;SDS011;1113;42.018;23.986;2023-04-01T00:18:42;22.60;;;16.48;;
2213;SDS011;1113;42.018;23.986;2023-04-01T00:21:08;25.20;;;16.80;;
2213;SDS011;1113;42.018;23.986;2023-04-01T00:23:35;24.15;;;17.50;;
2213;SDS011;1113;42.018;23.986;2023-04-01T00:26:02;26.67;;;19.02;;
2213;SDS011;1113;42.018;23.986;2023-04-01T00:28:29;34.20;;;22.05;;
2213;SDS011;1113;42.018;23.986;2023-04-01T00:30:56;32.70;;;24.17;;
2213;SDS011;1113;42.018;23.986;2023-04-01T00:33:24;33.60;;;23.80;;
2213;SDS011;1113;42.018;23.986;2023-04-01T00:35:50;41.03;;;27.70;;
2213;SDS011;1113;42.018;23.986;2023-04-01T00:38:17;44.50;;;31.00;;
2213;SDS011;1113;42.018;23.986;2023-04-01T00:40:45;34.83;;;26.73;;
2213;SDS011;1113;42.018;23.986;2023-04-01T00:43:12;42.50;;;27.05;;
2213;SDS011;1113;42.018;23.986;2023-04-01T00:45:40;39.17;;;27.35;;
2213;SDS011;1113;42.018;23.986;2023-04-01T00:48:08;32.92;;;22.15;;
2213;SDS011;1113;42.018;23.986;2023-04-01T00:50:37;28.15;;;19.20;;
2213;SDS011;1113;42.018;23.986;2023-04-01T00:53:05;25.70;;;19.40;;
2213;SDS011;1113;42.018;23.986;2023-04-01T00:55:33;24.05;;;17.02;;
2213;SDS011;1113;42.018;23.986;2023-04-01T00:58:05;24.70;;;16.90;;
2213;SDS011;1113;42.018;23.986;2023-04-01T01:00:33;24.65;;;16.45;;
2213;SDS011;1113;42.018;23.986;2023-04-01T01:03:00;24.17;;;17.48;;
2213;SDS011;1113;42.018;23.986;2023-04-01T01:05:31;21.40;;;16.90;;
2213;SDS011;1113;42.018;23.986;2023-04-01T01:08:03;25.55;;;16.60;;
2213;SDS011;1113;42.018;23.986;2023-04-01T01:10:34;25.05;;;16.75;;
2213;SDS011;1113;42.018;23.986;2023-04-01T01:13:04;21.33;;;15.95;;
2213;SDS011;1113;42.018;23.986;2023-04-01T01:15:32;24.73;;;16.50;;
2213;SDS011;1113;42.018;23.986;2023-04-01T01:18:01;22.70;;;17.00;;
2213;SDS011;1113;42.018;23.986;2023-04-01T01:20:40;25.50;;;15.85;;
2213;SDS011;1113;42.018;23.986;2023-04-01T01:26:16;24.13;;;14.43;;
2213;SDS011;1113;42.018;23.986;2023-04-01T01:28:51;24.00;;;15.57;;
2213;SDS011;1113;42.018;23.986;2023-04-01T01:31:21;21.70;;;14.52;;
2213;SDS011;1113;42.018;23.986;2023-04-01T01:33:51;20.02;;;13.15;;
2213;SDS011;1113;42.018;23.986;2023-04-01T01:36:22;26.60;;;16.42;;
2213;SDS011;1113;42.018;23.986;2023-04-01T01:38:49;17.02;;;13.90;;
2213;SDS011;1113;42.018;23.986;2023-04-01T01:41:17;21.02;;;15.90;;
2213;SDS011;1113;42.018;23.986;2023-04-01T01:43:46;18.80;;;15.15;;
2213;SDS011;1113;42.018;23.986;2023-04-01T01:46:15;20.10;;;14.93;;
2213;SDS011;1113;42.018;23.986;2023-04-01T01:48:42;25.27;;;15.80;;
2213;SDS011;1113;42.018;23.986;2023-04-01T01:51:09;22.20;;;16.63;;
2213;SDS011;1113;42.018;23.986;2023-04-01T01:53:37;22.92;;;17.65;;
2213;SDS011;1113;42.018;23.986;2023-04-01T01:56:04;15.52;;;12.50;;
2213;SDS011;1113;42.018;23.986;2023-04-01T01:58:32;9.23;;;6.32;;
2213;SDS011;1113;42.018;23.986;2023-04-01T02:01:00;7.45;;;4.05;;
2213;SDS011;1113;42.018;23.986;2023-04-01T02:03:28;6.25;;;3.20;;
2213;SDS011;1113;42.018;23.986;2023-04-01T02:05:56;4.20;;;2.72;;
2213;SDS011;1113;42.018;23.986;2023-04-01T02:08:25;4.18;;;2.63;;
2213;SDS011;1113;42.018;23.986;2023-04-01T02:10:55;4.55;;;3.45;;
2213;SDS011;1113;42.018;23.986;2023-04-01T02:13:24;12.43;;;8.43;;
2213;SDS011;1113;42.018;23.986;2023-04-01T02:15:51;16.47;;;11.70;;
2213;SDS011;1113;42.018;23.986;2023-04-01T02:18:22;23.20;;;17.02;;
2213;SDS011;1113;42.018;23.986;2023-04-01T02:20:49;25.60;;;19.07;;
2213;SDS011;1113;42.018;23.986;2023-04-01T02:23:16;38.92;;;31.27;;
2213;SDS011;1113;42.018;23.986;2023-04-01T02:25:42;29.50;;;22.20;;
2213;SDS011;1113;42.018;23.986;2023-04-01T02:28:11;31.80;;;21.05;;
2213;SDS011;1113;42.018;23.986;2023-04-01T02:30:39;11.07;;;7.75;;
2213;SDS011;1113;42.018;23.986;2023-04-01T02:33:08;8.52;;;4.80;;
2213;SDS011;1113;42.018;23.986;2023-04-01T02:35:35;6.35;;;3.53;;
2213;SDS011;1113;42.018;23.986;2023-04-01T02:38:02;4.60;;;3.17;;
2213;SDS011;1113;42.018;23.986;2023-04-01T02:40:29;5.45;;;3.05;;
2213;SDS011;1113;42.018;23.986;2023-04-01T02:42:55;5.60;;;3.70;;
2213;SDS011;1113;42.018;23.986;2023-04-01T02:45:23;5.60;;;3.83;;
2213;SDS011;1113;42.018;23.986;2023-04-01T02:47:50;10.80;;;6.80;;
2213;SDS011;1113;42.018;23.986;2023-04-01T02:50:17;11.10;;;9.20;;
2213;SDS011;1113;42.018;23.986;2023-04-01T02:52:43;18.33;;;14.73;;
2213;SDS011;1113;42.018;23.986;2023-04-01T02:55:10;30.30;;;20.07;;
2213;SDS011;1113;42.018;23.986;2023-04-01T02:57:36;37.47;;;21.80;;
2213;SDS011;1113;42.018;23.986;2023-04-01T03:00:03;35.67;;;28.17;;
2213;SDS011;1113;42.018;23.986;2023-04-01T03:02:31;34.07;;;23.37;;
2213;SDS011;1113;42.018;23.986;2023-04-01T03:04:57;20.33;;;17.30;;
2213;SDS011;1113;42.018;23.986;2023-04-01T03:07:24;17.67;;;11.57;;
2213;SDS011;1113;42.018;23.986;2023-04-01T03:09:51;17.90;;;13.20;;
2213;SDS011;1113;42.018;23.986;2023-04-01T03:12:17;31.50;;;20.80;;
2213;SDS011;1113;42.018;23.986;2023-04-01T03:14:43;18.90;;;15.10;;
2213;SDS011;1113;42.018;23.986;2023-04-01T03:17:10;10.07;;;7.00;;
2213;SDS011;1113;42.018;23.986;2023-04-01T03:19:38;22.30;;;16.90;;
2213;SDS011;1113;42.018;23.986;2023-04-01T03:22:04;28.75;;;20.27;;
2213;SDS011;1113;42.018;23.986;2023-04-01T03:24:31;29.38;;;20.20;;
2213;SDS011;1113;42.018;23.986;2023-04-01T03:26:57;30.65;;;21.00;;
2213;SDS011;1113;42.018;23.986;2023-04-01T03:29:24;20.70;;;15.93;;
2213;SDS011;1113;42.018;23.986;2023-04-01T03:31:50;25.95;;;16.15;;
2213;SDS011;1113;42.018;23.986;2023-04-01T03:34:17;26.67;;;17.83;;
2213;SDS011;1113;42.018;23.986;2023-04-01T03:36:45;21.20;;;15.85;;
2213;SDS011;1113;42.018;23.986;2023-04-01T03:39:11;18.83;;;13.68;;
2213;SDS011;1113;42.018;23.986;2023-04-01T03:41:38;15.20;;;10.68;;
2213;SDS011;1113;42.018;23.986;2023-04-01T03:44:04;21.83;;;14.40;;
2213;SDS011;1113;42.018;23.986;2023-04-01T03:46:31;31.48;;;21.42;;
2213;SDS011;1113;42.018;23.986;2023-04-01T03:48:57;20.17;;;16.25;;
2213;SDS011;1113;42.018;23.986;2023-04-01T03:51:24;24.35;;;15.25;;
2213;SDS011;1113;42.018;23.986;2023-04-01T03:53:52;10.57;;;7.90;;
2213;SDS011;1113;42.018;23.986;2023-04-01T03:56:18;9.88;;;5.10;;
2213;SDS011;1113;42.018;23.986;2023-04-01T03:58:45;9.13;;;5.13;;
2213;SDS011;1113;42.018;23.986;2023-04-01T04:01:15;14.90;;;10.10;;
2213;SDS011;1113;42.018;23.986;2023-04-01T04:03:42;20.33;;;12.53;;
2213;SDS011;1113;42.018;23.986;2023-04-01T04:06:10;18.67;;;11.93;;
2213;SDS011;1113;42.018;23.986;2023-04-01T04:08:37;15.70;;;11.30;;
2213;SDS011;1113;42.018;23.986;2023-04-01T04:11:06;15.83;;;10.50;;
2213;SDS011;1113;42.018;23.986;2023-04-01T04:13:32;16.00;;;11.37;;
2213;SDS011;1113;42.018;23.986;2023-04-01T04:15:59;20.40;;;13.33;;
2213;SDS011;1113;42.018;23.986;2023-04-01T04:18:25;18.35;;;13.60;;
2213;SDS011;1113;42.018;23.986;2023-04-01T04:20:52;20.00;;;12.70;;
2213;SDS011;1113;42.018;23.986;2023-04-01T04:23:18;20.60;;;13.93;;
2213;SDS011;1113;42.018;23.986;2023-04-01T04:25:52;19.30;;;13.73;;
2213;SDS011;1113;42.018;23.986;2023-04-01T04:28:20;21.70;;;14.30;;
2213;SDS011;1113;42.018;23.986;2023-04-01T04:30:47;14.63;;;10.48;;
2213;SDS011;1113;42.018;23.986;2023-04-01T04:33:14;16.42;;;13.23;;
2213;SDS011;1113;42.018;23.986;2023-04-01T04:35:40;18.48;;;13.43;;
2213;SDS011;1113;42.018;23.986;2023-04-01T04:38:07;20.00;;;12.63;;
2213;SDS011;1113;42.018;23.986;2023-04-01T04:40:35;21.08;;;11.73;;
2213;SDS011;1113;42.018;23.986;2023-04-01T04:43:02;16.77;;;12.35;;
2213;SDS011;1113;42.018;23.986;2023-04-01T04:45:29;16.33;;;11.35;;
2213;SDS011;1113;42.018;23.986;2023-04-01T04:47:56;18.30;;;13.55;;
2213;SDS011;1113;42.018;23.986;2023-04-01T04:50:23;17.50;;;11.52;;
2213;SDS011;1113;42.018;23.986;2023-04-01T04:52:50;20.95;;;13.85;;
2213;SDS011;1113;42.018;23.986;2023-04-01T04:55:17;17.30;;;12.77;;
2213;SDS011;1113;42.018;23.986;2023-04-01T04:57:43;19.02;;;14.05;;
2213;SDS011;1113;42.018;23.986;2023-04-01T05:00:10;20.98;;;16.23;;
2213;SDS011;1113;42.018;23.986;2023-04-01T05:02:44;19.80;;;14.30;;
2213;SDS011;1113;42.018;23.986;2023-04-01T05:05:13;24.88;;;19.08;;
2213;SDS011;1113;42.018;23.986;2023-04-01T05:07:40;30.60;;;17.10;;
2213;SDS011;1113;42.018;23.986;2023-04-01T05:10:06;25.90;;;16.80;;
2213;SDS011;1113;42.018;23.986;2023-04-01T05:12:33;26.38;;;17.52;;
2213;SDS011;1113;42.018;23.986;2023-04-01T05:15:03;30.48;;;19.33;;
2213;SDS011;1113;42.018;23.986;2023-04-01T05:17:30;43.67;;;29.50;;
2213;SDS011;1113;42.018;23.986;2023-04-01T05:19:57;42.28;;;31.95;;
2213;SDS011;1113;42.018;23.986;2023-04-01T05:22:24;44.70;;;35.45;;
2213;SDS011;1113;42.018;23.986;2023-04-01T05:24:51;40.00;;;29.75;;
2213;SDS011;1113;42.018;23.986;2023-04-01T05:27:17;36.50;;;28.45;;
2213;SDS011;1113;42.018;23.986;2023-04-01T05:29:44;34.53;;;25.58;;
2213;SDS011;1113;42.018;23.986;2023-04-01T05:32:10;31.20;;;24.25;;
2213;SDS011;1113;42.018;23.986;2023-04-01T05:34:37;35.43;;;23.10;;
2213;SDS011;1113;42.018;23.986;2023-04-01T05:37:05;30.73;;;23.20;;
2213;SDS011;1113;42.018;23.986;2023-04-01T05:39:35;34.23;;;24.87;;
2213;SDS011;1113;42.018;23.986;2023-04-01T05:42:01;31.30;;;24.60;;
2213;SDS011;1113;42.018;23.986;2023-04-01T05:44:31;32.97;;;23.13;;
2213;SDS011;1113;42.018;23.986;2023-04-01T05:46:57;43.47;;;28.97;;
2213;SDS011;1113;42.018;23.986;2023-04-01T05:49:24;69.23;;;44.63;;
2213;SDS011;1113;42.018;23.986;2023-04-01T05:51:50;73.77;;;50.10;;
2213;SDS011;1113;42.018;23.986;2023-04-01T05:54:19;76.37;;;54.00;;
2213;SDS011;1113;42.018;23.986;2023-04-01T05:56:45;64.67;;;46.93;;
2213;SDS011;1113;42.018;23.986;2023-04-01T05:59:12;54.13;;;35.00;;
2213;SDS011;1113;42.018;23.986;2023-04-01T06:01:39;50.23;;;36.27;;
2213;SDS011;1113;42.018;23.986;2023-04-01T06:04:05;45.13;;;30.40;;
2213;SDS011;1113;42.018;23.986;2023-04-01T06:06:32;38.77;;;27.70;;
2213;SDS011;1113;42.018;23.986;2023-04-01T06:09:01;45.77;;;32.60;;
2213;SDS011;1113;42.018;23.986;2023-04-01T06:11:33;43.93;;;29.27;;
2213;SDS011;1113;42.018;23.986;2023-04-01T06:14:05;41.17;;;30.23;;
2213;SDS011;1113;42.018;23.986;2023-04-01T06:16:36;34.87;;;26.90;;
2213;SDS011;1113;42.018;23.986;2023-04-01T06:19:09;34.33;;;24.40;;
2213;SDS011;1113;42.018;23.986;2023-04-01T06:24:49;31.70;;;23.17;;
2213;SDS011;1113;42.018;23.986;2023-04-01T06:27:23;44.60;;;33.83;;
2213;SDS011;1113;42.018;23.986;2023-04-01T06:32:57;35.93;;;25.63;;
2213;SDS011;1113;42.018;23.986;2023-04-01T06:35:40;29.33;;;19.50;;
2213;SDS011;1113;42.018;23.986;2023-04-01T06:38:11;27.47;;;21.17;;
2213;SDS011;1113;42.018;23.986;2023-04-01T06:43:30;23.13;;;17.30;;
2213;SDS011;1113;42.018;23.986;2023-04-01T06:46:01;34.40;;;21.57;;
2213;SDS011;1113;42.018;23.986;2023-04-01T06:48:35;39.40;;;27.40;;
2213;SDS011;1113;42.018;23.986;2023-04-01T06:51:07;57.97;;;37.33;;
2213;SDS011;1113;42.018;23.986;2023-04-01T06:53:39;45.53;;;34.23;;
2213;SDS011;1113;42.018;23.986;2023-04-01T06:56:08;61.27;;;41.60;;
2213;SDS011;1113;42.018;23.986;2023-04-01T06:58:37;49.40;;;35.10;;
2213;SDS011;1113;42.018;23.986;2023-04-01T07:01:04;40.60;;;27.87;;
2213;SDS011;1113;42.018;23.986;2023-04-01T07:03:32;36.30;;;24.90;;
2213;SDS011;1113;42.018;23.986;2023-04-01T07:06:01;33.43;;;21.60;;
2213;SDS011;1113;42.018;23.986;2023-04-01T07:08:29;29.67;;;22.43;;
2213;SDS011;1113;42.018;23.986;2023-04-01T07:10:56;25.00;;;18.73;;
2213;SDS011;1113;42.018;23.986;2023-04-01T07:13:25;32.87;;;23.03;;
2213;SDS011;1113;42.018;23.986;2023-04-01T07:16:03;22.00;;;16.00;;
2213;SDS011;1113;42.018;23.986;2023-04-01T07:18:46;19.07;;;15.77;;
2213;SDS011;1113;42.018;23.986;2023-04-01T07:21:27;20.27;;;14.00;;
2213;SDS011;1113;42.018;23.986;2023-04-01T07:23:56;17.20;;;9.50;;
2213;SDS011;1113;42.018;23.986;2023-04-01T07:26:25;16.37;;;11.20;;
2213;SDS011;1113;42.018;23.986;2023-04-01T07:28:52;18.40;;;12.33;;
2213;SDS011;1113;42.018;23.986;2023-04-01T07:31:22;22.07;;;13.07;;
2213;SDS011;1113;42.018;23.986;2023-04-01T07:33:59;14.00;;;9.03;;
2213;SDS011;1113;42.018;23.986;2023-04-01T07:36:29;17.10;;;8.67;;
2213;SDS011;1113;42.018;23.986;2023-04-01T07:39:00;11.07;;;7.40;;
2213;SDS011;1113;42.018;23.986;2023-04-01T07:41:31;13.63;;;7.57;;
2213;SDS011;1113;42.018;23.986;2023-04-01T07:44:06;9.33;;;6.57;;
2213;SDS011;1113;42.018;23.986;2023-04-01T07:49:17;9.53;;;5.80;;
2213;SDS011;1113;42.018;23.986;2023-04-01T07:51:49;13.40;;;6.70;;
2213;SDS011;1113;42.018;23.986;2023-04-01T07:54:18;7.60;;;5.10;;
2213;SDS011;1113;42.018;23.986;2023-04-01T07:56:48;12.50;;;6.10;;
2213;SDS011;1113;42.018;23.986;2023-04-01T07:59:19;9.37;;;5.67;;
2213;SDS011;1113;42.018;23.986;2023-04-01T08:01:47;11.63;;;6.17;;
2213;SDS011;1113;42.018;23.986;2023-04-01T08:04:28;8.13;;;6.10;;
2213;SDS011;1113;42.018;23.986;2023-04-01T08:06:58;9.67;;;7.27;;
2213;SDS011;1113;42.018;23.986;2023-04-01T08:09:26;13.37;;;6.70;;
2213;SDS011;1113;42.018;23.986;2023-04-01T08:11:59;10.27;;;5.83;;
2213;SDS011;1113;42.018;23.986;2023-04-01T08:14:30;10.57;;;5.80;;
2213;SDS011;1113;42.018;23.986;2023-04-01T08:16:59;13.23;;;7.37;;
2213;SDS011;1113;42.018;23.986;2023-04-01T08:19:31;14.03;;;7.80;;
2213;SDS011;1113;42.018;23.986;2023-04-01T08:22:07;15.07;;;9.07;;
2213;SDS011;1113;42.018;23.986;2023-04-01T08:24:35;10.33;;;7.83;;
2213;SDS011;1113;42.018;23.986;2023-04-01T08:27:06;11.50;;;6.67;;
2213;SDS011;1113;42.018;23.986;2023-04-01T08:29:36;11.33;;;6.87;;
2213;SDS011;1113;42.018;23.986;2023-04-01T08:32:05;9.60;;;6.17;;
2213;SDS011;1113;42.018;23.986;2023-04-01T08:34:35;12.80;;;6.93;;
2213;SDS011;1113;42.018;23.986;2023-04-01T08:37:04;9.57;;;5.83;;
2213;SDS011;1113;42.018;23.986;2023-04-01T08:39:32;14.63;;;7.60;;
2213;SDS011;1113;42.018;23.986;2023-04-01T08:53:09;5.73;;;3.83;;
2213;SDS011;1113;42.018;23.986;2023-04-01T08:55:37;9.97;;;5.40;;
2213;SDS011;1113;42.018;23.986;2023-04-01T09:01:09;6.13;;;3.73;;
2213;SDS011;1113;42.018;23.986;2023-04-01T09:03:41;14.43;;;3.47;;
2213;SDS011;1113;42.018;23.986;2023-04-01T09:09:47;12.27;;;3.57;;
2213;SDS011;1113;42.018;23.986;2023-04-01T09:17:51;6.67;;;2.17;;
2213;SDS011;1113;42.018;23.986;2023-04-01T09:20:29;9.33;;;3.40;;
2213;SDS011;1113;42.018;23.986;2023-04-01T09:23:05;7.20;;;2.03;;
2213;SDS011;1113;42.018;23.986;2023-04-01T09:25:40;8.07;;;2.67;;
2213;SDS011;1113;42.018;23.986;2023-04-01T09:28:10;6.40;;;2.50;;
2213;SDS011;1113;42.018;23.986;2023-04-01T09:30:40;9.43;;;2.73;;
2213;SDS011;1113;42.018;23.986;2023-04-01T09:35:56;7.97;;;2.70;;
2213;SDS011;1113;42.018;23.986;2023-04-01T09:38:29;5.23;;;2.20;;
2213;SDS011;1113;42.018;23.986;2023-04-01T09:40:58;5.33;;;2.30;;
2213;SDS011;1113;42.018;23.986;2023-04-01T09:43:25;5.30;;;2.00;;
2213;SDS011;1113;42.018;23.986;2023-04-01T09:45:58;7.00;;;2.00;;
2213;SDS011;1113;42.018;23.986;2023-04-01T09:48:34;5.37;;;1.97;;
2213;SDS011;1113;42.018;23.986;2023-04-01T09:51:06;5.10;;;2.60;;
2213;SDS011;1113;42.018;23.986;2023-04-01T10:04:54;11.07;;;3.93;;
2213;SDS011;1113;42.018;23.986;2023-04-01T10:13:22;20.63;;;8.60;;
2213;SDS011;1113;42.018;23.986;2023-04-01T10:16:10;11.23;;;5.77;;
2213;SDS011;1113;42.018;23.986;2023-04-01T10:21:36;3.40;;;1.93;;
2213;SDS011;1113;42.018;23.986;2023-04-01T10:24:16;4.67;;;1.77;;
2213;SDS011;1113;42.018;23.986;2023-04-01T10:29:43;6.17;;;3.40;;
2213;SDS011;1113;42.018;23.986;2023-04-01T10:32:26;5.13;;;2.33;;
2213;SDS011;1113;42.018;23.986;2023-04-01T10:37:55;6.77;;;3.10;;
2213;SDS011;1113;42.018;23.986;2023-04-01T10:40:38;7.60;;;3.37;;
2213;SDS011;1113;42.018;23.986;2023-04-01T10:43:19;11.37;;;3.37;;
2213;SDS011;1113;42.018;23.986;2023-04-01T10:48:47;9.30;;;3.27;;
2213;SDS011;1113;42.018;23.986;2023-04-01T10:51:19;5.83;;;2.17;;
2213;SDS011;1113;42.018;23.986;2023-04-01T10:56:48;5.97;;;2.40;;
2213;SDS011;1113;42.018;23.986;2023-04-01T11:02:12;6.30;;;3.63;;
2213;SDS011;1113;42.018;23.986;2023-04-01T11:10:45;9.27;;;2.70;;
2213;SDS011;1113;42.018;23.986;2023-04-01T11:19:05;15.80;;;3.73;;
2213;SDS011;1113;42.018;23.986;2023-04-01T11:24:18;6.30;;;3.20;;
2213;SDS011;1113;42.018;23.986;2023-04-01T11:26:51;8.03;;;3.40;;
2213;SDS011;1113;42.018;23.986;2023-04-01T11:32:02;7.77;;;3.03;;
2213;SDS011;1113;42.018;23.986;2023-04-01T11:34:45;11.97;;;3.77;;
2213;SDS011;1113;42.018;23.986;2023-04-01T11:37:23;19.27;;;5.03;;
2213;SDS011;1113;42.018;23.986;2023-04-01T11:39:58;3.90;;;1.80;;
2213;SDS011;1113;42.018;23.986;2023-04-01T11:42:28;6.90;;;2.27;;
2213;SDS011;1113;42.018;23.986;2023-04-01T11:44:58;7.73;;;2.70;;
2213;SDS011;1113;42.018;23.986;2023-04-01T11:47:30;7.07;;;2.50;;
2213;SDS011;1113;42.018;23.986;2023-04-01T11:50:12;11.80;;;3.23;;
2213;SDS011;1113;42.018;23.986;2023-04-01T11:53:03;7.47;;;3.23;;
2213;SDS011;1113;42.018;23.986;2023-04-01T11:55:35;9.50;;;3.67;;
2213;SDS011;1113;42.018;23.986;2023-04-01T11:58:12;7.47;;;4.23;;
2213;SDS011;1113;42.018;23.986;2023-04-01T12:00:50;7.40;;;3.40;;
2213;SDS011;1113;42.018;23.986;2023-04-01T12:03:29;5.63;;;3.53;;
2213;SDS011;1113;42.018;23.986;2023-04-01T12:06:02;8.00;;;3.20;;
2213;SDS011;1113;42.018;23.986;2023-04-01T12:08:34;8.77;;;3.40;;
2213;SDS011;1113;42.018;23.986;2023-04-01T12:11:05;7.57;;;3.60;;
2213;SDS011;1113;42.018;23.986;2023-04-01T12:13:36;9.03;;;3.97;;
2213;SDS011;1113;42.018;23.986;2023-04-01T12:18:46;5.30;;;3.10;;
2213;SDS011;1113;42.018;23.986;2023-04-01T12:21:19;17.30;;;4.17;;
2213;SDS011;1113;42.018;23.986;2023-04-01T12:23:54;8.60;;;3.57;;
2213;SDS011;1113;42.018;23.986;2023-04-01T12:26:25;6.10;;;2.67;;
2213;SDS011;1113;42.018;23.986;2023-04-01T12:29:14;8.33;;;3.40;;
2213;SDS011;1113;42.018;23.986;2023-04-01T12:31:47;11.30;;;2.83;;
2213;SDS011;1113;42.018;23.986;2023-04-01T12:34:24;8.03;;;3.50;;
2213;SDS011;1113;42.018;23.986;2023-04-01T12:36:57;9.77;;;2.67;;
2213;SDS011;1113;42.018;23.986;2023-04-01T12:39:41;8.20;;;4.10;;
2213;SDS011;1113;42.018;23.986;2023-04-01T12:42:12;7.13;;;3.67;;
2213;SDS011;1113;42.018;23.986;2023-04-01T12:44:47;7.97;;;3.70;;
2213;SDS011;1113;42.018;23.986;2023-04-01T12:47:27;4.83;;;2.20;;
2213;SDS011;1113;42.018;23.986;2023-04-01T12:50:07;4.27;;;2.07;;
2213;SDS011;1113;42.018;23.986;2023-04-01T12:52:44;6.37;;;2.00;;
2213;SDS011;1113;42.018;23.986;2023-04-01T12:58:05;7.90;;;3.50;;
2213;SDS011;1113;42.018;23.986;2023-04-01T13:00:44;4.77;;;2.00;;
2213;SDS011;1113;42.018;23.986;2023-04-01T13:03:17;8.00;;;1.97;;
2213;SDS011;1113;42.018;23.986;2023-04-01T13:08:41;5.60;;;2.37;;
2213;SDS011;1113;42.018;23.986;2023-04-01T13:11:13;7.83;;;2.13;;
2213;SDS011;1113;42.018;23.986;2023-04-01T13:13:48;7.07;;;2.80;;
2213;SDS011;1113;42.018;23.986;2023-04-01T13:16:20;4.47;;;2.20;;
2213;SDS011;1113;42.018;23.986;2023-04-01T13:18:53;4.30;;;1.83;;
2213;SDS011;1113;42.018;23.986;2023-04-01T13:21:23;6.97;;;2.00;;
2213;SDS011;1113;42.018;23.986;2023-04-01T13:23:56;5.73;;;3.33;;
2213;SDS011;1113;42.018;23.986;2023-04-01T13:26:27;9.37;;;2.53;;
2213;SDS011;1113;42.018;23.986;2023-04-01T13:28:58;5.87;;;2.83;;
2213;SDS011;1113;42.018;23.986;2023-04-01T13:31:28;3.97;;;2.37;;
2213;SDS011;1113;42.018;23.986;2023-04-01T13:34:00;6.80;;;4.10;;
2213;SDS011;1113;42.018;23.986;2023-04-01T13:36:33;5.00;;;3.30;;
2213;SDS011;1113;42.018;23.986;2023-04-01T13:39:10;7.10;;;3.57;;
2213;SDS011;1113;42.018;23.986;2023-04-01T13:44:24;4.13;;;2.20;;
2213;SDS011;1113;42.018;23.986;2023-04-01T13:46:59;19.47;;;9.43;;
2213;SDS011;1113;42.018;23.986;2023-04-01T13:55:04;4.20;;;2.40;;
2213;SDS011;1113;42.018;23.986;2023-04-01T13:57:43;6.33;;;3.50;;
2213;SDS011;1113;42.018;23.986;2023-04-01T14:00:25;5.73;;;1.80;;
2213;SDS011;1113;42.018;23.986;2023-04-01T14:05:47;8.43;;;2.63;;
2213;SDS011;1113;42.018;23.986;2023-04-01T14:08:18;5.50;;;3.40;;
2213;SDS011;1113;42.018;23.986;2023-04-01T14:10:49;4.43;;;2.60;;
2213;SDS011;1113;42.018;23.986;2023-04-01T14:13:23;5.83;;;2.80;;
2213;SDS011;1113;42.018;23.986;2023-04-01T14:16:05;8.40;;;4.50;;
2213;SDS011;1113;42.018;23.986;2023-04-01T14:18:47;2.97;;;2.30;;
2213;SDS011;1113;42.018;23.986;2023-04-01T14:21:21;2.90;;;2.23;;
2213;SDS011;1113;42.018;23.986;2023-04-01T14:26:47;4.20;;;1.77;;
2213;SDS011;1113;42.018;23.986;2023-04-01T14:29:18;3.60;;;1.70;;
2213;SDS011;1113;42.018;23.986;2023-04-01T14:31:53;3.10;;;1.77;;
2213;SDS011;1113;42.018;23.986;2023-04-01T14:34:25;2.70;;;1.50;;
2213;SDS011;1113;42.018;23.986;2023-04-01T14:37:07;3.43;;;1.70;;
2213;SDS011;1113;42.018;23.986;2023-04-01T14:42:38;5.47;;;2.03;;
2213;SDS011;1113;42.018;23.986;2023-04-01T14:47:53;2.97;;;1.90;;
2213;SDS011;1113;42.018;23.986;2023-04-01T14:50:21;4.80;;;1.83;;
2213;SDS011;1113;42.018;23.986;2023-04-01T14:52:51;3.60;;;2.33;;
2213;SDS011;1113;42.018;23.986;2023-04-01T14:55:21;3.43;;;1.90;;
2213;SDS011;1113;42.018;23.986;2023-04-01T14:58:04;4.53;;;2.00;;
2213;SDS011;1113;42.018;23.986;2023-04-01T15:00:38;6.57;;;1.80;;
2213;SDS011;1113;42.018;23.986;2023-04-01T15:03:07;5.80;;;1.90;;
2213;SDS011;1113;42.018;23.986;2023-04-01T15:05:39;4.40;;;2.40;;
2213;SDS011;1113;42.018;23.986;2023-04-01T15:08:09;3.50;;;2.23;;
2213;SDS011;1113;42.018;23.986;2023-04-01T15:10:46;3.40;;;1.80;;
2213;SDS011;1113;42.018;23.986;2023-04-01T15:13:17;3.23;;;2.37;;
2213;SDS011;1113;42.018;23.986;2023-04-01T15:15:49;4.13;;;2.07;;
2213;SDS011;1113;42.018;23.986;2023-04-01T15:18:25;14.87;;;11.10;;
2213;SDS011;1113;42.018;23.986;2023-04-01T15:20:56;19.20;;;15.50;;
2213;SDS011;1113;42.018;23.986;2023-04-01T15:23:31;20.53;;;17.80;;
2213;SDS011;1113;42.018;23.986;2023-04-01T15:26:09;24.60;;;20.40;;
2213;SDS011;1113;42.018;23.986;2023-04-01T15:28:40;34.97;;;24.17;;
2213;SDS011;1113;42.018;23.986;2023-04-01T15:31:09;37.77;;;29.60;;
2213;SDS011;1113;42.018;23.986;2023-04-01T15:33:46;32.63;;;22.97;;
2213;SDS011;1113;42.018;23.986;2023-04-01T15:36:18;23.70;;;16.33;;
2213;SDS011;1113;42.018;23.986;2023-04-01T15:38:47;19.93;;;14.20;;
2213;SDS011;1113;42.018;23.986;2023-04-01T15:41:15;9.37;;;4.57;;
2213;SDS011;1113;42.018;23.986;2023-04-01T15:43:44;9.47;;;3.80;;
2213;SDS011;1113;42.018;23.986;2023-04-01T15:46:22;3.03;;;1.50;;
2213;SDS011;1113;42.018;23.986;2023-04-01T15:48:55;2.90;;;1.50;;
2213;SDS011;1113;42.018;23.986;2023-04-01T15:51:26;2.07;;;1.17;;
2213;SDS011;1113;42.018;23.986;2023-04-01T15:56:52;3.57;;;1.80;;
2213;SDS011;1113;42.018;23.986;2023-04-01T15:59:27;2.97;;;1.60;;
2213;SDS011;1113;42.018;23.986;2023-04-01T16:01:58;4.50;;;2.20;;
2213;SDS011;1113;42.018;23.986;2023-04-01T16:04:46;3.73;;;2.27;;
2213;SDS011;1113;42.018;23.986;2023-04-01T16:07:17;4.67;;;1.87;;
2213;SDS011;1113;42.018;23.986;2023-04-01T16:09:49;1.90;;;1.20;;
2213;SDS011;1113;42.018;23.986;2023-04-01T16:12:19;3.13;;;1.63;;
2213;SDS011;1113;42.018;23.986;2023-04-01T16:14:58;2.27;;;1.13;;
2213;SDS011;1113;42.018;23.986;2023-04-01T16:17:44;3.00;;;1.10;;
2213;SDS011;1113;42.018;23.986;2023-04-01T16:20:15;4.83;;;1.53;;
2213;SDS011;1113;42.018;23.986;2023-04-01T16:22:45;1.90;;;0.97;;
2213;SDS011;1113;42.018;23.986;2023-04-01T16:25:32;3.30;;;1.20;;
2213;SDS011;1113;42.018;23.986;2023-04-01T16:28:03;3.07;;;1.20;;
2213;SDS011;1113;42.018;23.986;2023-04-01T16:30:37;2.53;;;1.30;;
2213;SDS011;1113;42.018;23.986;2023-04-01T16:33:04;4.83;;;1.50;;
2213;SDS011;1113;42.018;23.986;2023-04-01T16:35:39;5.03;;;1.50;;
2213;SDS011;1113;42.018;23.986;2023-04-01T16:38:09;2.30;;;1.20;;
2213;SDS011;1113;42.018;23.986;2023-04-01T16:40:40;2.50;;;1.20;;
2213;SDS011;1113;42.018;23.986;2023-04-01T16:43:11;2.10;;;1.30;;
2213;SDS011;1113;42.018;23.986;2023-04-01T16:45:41;1.90;;;1.20;;
2213;SDS011;1113;42.018;23.986;2023-04-01T16:48:11;2.80;;;1.70;;
2213;SDS011;1113;42.018;23.986;2023-04-01T16:50:48;3.03;;;1.43;;
2213;SDS011;1113;42.018;23.986;2023-04-01T16:53:17;2.33;;;1.43;;
2213;SDS011;1113;42.018;23.986;2023-04-01T16:55:47;2.53;;;1.70;;
2213;SDS011;1113;42.018;23.986;2023-04-01T16:58:18;2.30;;;1.60;;
2213;SDS011;1113;42.018;23.986;2023-04-01T17:00:49;2.77;;;1.47;;
2213;SDS011;1113;42.018;23.986;2023-04-01T17:03:17;2.80;;;1.80;;
2213;SDS011;1113;42.018;23.986;2023-04-01T17:05:52;3.30;;;1.83;;
2213;SDS011;1113;42.018;23.986;2023-04-01T17:08:24;5.23;;;3.00;;
2213;SDS011;1113;42.018;23.986;2023-04-01T17:10:56;11.43;;;7.07;;
2213;SDS011;1113;42.018;23.986;2023-04-01T17:13:32;5.90;;;3.93;;